ADDS TAF Data INFO
IDs: Format: Raw Decoded Include METARs

Data at: 1319 UTC 19 Jan 2018

KINW 191256Z AUTO 13010KT 10SM CLR M02/M10 A3011 RMK AO2 SLP197 T10221100

KINW 191122Z 1912/2012 13010KT P6SM SCT250
  FM191900 19014G24KT P6SM BKN250
  FM200200 18011KT P6SM BKN250